Time;durP1;ratioP1;P1;durP2;ratioP2;P2;SDS_P1;SDS_P2;PMS_P1;PMS_P2;Temp;Humidity;BMP_temperature;BMP_pressure;BME280_temperature;BME280_humidity;BME280_pressure;Samples;Min_cycle;Max_cycle;Signal;HPM_P1;HPM_P2
2022/01/15 00:01:50;;;;;;;30.83;12.53;;;3.50;97.30;;;;;;5016443;28;20547;-88
2022/01/15 00:04:16;;;;;;;35.93;14.97;;;3.40;97.30;;;;;;5034167;28;20195;-89
2022/01/15 00:06:41;;;;;;;43.40;14.97;;;3.40;97.30;;;;;;5016107;28;20447;-89
2022/01/15 00:09:07;;;;;;;42.50;13.70;;;3.40;97.30;;;;;;5016460;28;20189;-89
2022/01/15 00:11:34;;;;;;;30.30;13.30;;;3.40;97.30;;;;;;5016426;28;20234;-88
2022/01/15 00:14:12;;;;;;;46.23;14.10;;;3.30;97.30;;;;;;5016332;28;20172;-88
2022/01/15 00:16:46;;;;;;;28.93;11.60;;;3.30;97.30;;;;;;5016375;28;20407;-89
2022/01/15 00:19:15;;;;;;;32.13;11.63;;;3.20;97.30;;;;;;5016369;28;20450;-89
2022/01/15 00:21:41;;;;;;;31.13;11.57;;;3.20;97.30;;;;;;5015928;28;20423;-88
2022/01/15 00:24:07;;;;;;;30.40;11.70;;;3.10;97.30;;;;;;5016230;28;20419;-88
2022/01/15 00:26:33;;;;;;;30.87;12.10;;;3.10;97.30;;;;;;5015906;28;20447;-89
2022/01/15 00:28:59;;;;;;;31.47;12.20;;;3.10;97.30;;;;;;5014385;28;20463;-90
2022/01/15 00:31:25;;;;;;;33.00;12.60;;;3.10;97.30;;;;;;5012956;28;20462;-89
2022/01/15 00:33:50;;;;;;;30.27;10.43;;;3.00;97.30;;;;;;5013314;28;20172;-88
2022/01/15 00:36:17;;;;;;;28.33;10.40;;;3.00;97.30;;;;;;5013160;28;20271;-89
2022/01/15 00:38:43;;;;;;;26.30;10.30;;;3.00;97.30;;;;;;5030683;28;20224;-88
2022/01/15 00:41:09;;;;;;;28.97;10.10;;;3.00;97.30;;;;;;5029668;28;21000;-89
2022/01/15 00:43:34;;;;;;;32.13;11.33;;;3.00;97.30;;;;;;5030931;28;20411;-89
2022/01/15 00:46:00;;;;;;;32.47;12.27;;;3.00;97.30;;;;;;5011997;28;20213;-89
2022/01/15 00:48:26;;;;;;;35.03;11.67;;;3.00;97.30;;;;;;5012916;28;20201;-89
2022/01/15 00:50:53;;;;;;;34.20;13.00;;;3.10;97.30;;;;;;5030583;28;20318;-88
2022/01/15 00:53:18;;;;;;;30.27;10.40;;;3.10;97.30;;;;;;5013037;28;20882;-89
2022/01/15 00:55:44;;;;;;;29.90;11.00;;;3.10;97.30;;;;;;5012956;28;20445;-89
2022/01/15 00:58:10;;;;;;;30.47;10.70;;;3.00;97.30;;;;;;5012607;28;20204;-89
2022/01/15 01:00:36;;;;;;;35.43;11.70;;;3.00;97.30;;;;;;5012545;28;20662;-89
2022/01/15 01:03:02;;;;;;;31.50;11.40;;;3.00;97.30;;;;;;5012410;28;20211;-90
2022/01/15 01:05:28;;;;;;;37.70;12.50;;;3.00;97.30;;;;;;5012694;28;20500;-89
2022/01/15 01:07:53;;;;;;;35.17;12.57;;;3.00;97.30;;;;;;5012676;28;20443;-89
2022/01/15 01:23:28;;;;;;;36.33;12.47;;;3.00;97.30;;;;;;5030228;28;20562;-89
2022/01/15 01:26:06;;;;;;;32.90;11.50;;;3.00;97.30;;;;;;5012235;28;20936;-88
2022/01/15 01:28:39;;;;;;;35.00;11.90;;;3.00;97.30;;;;;;5012436;28;20443;-90
2022/01/15 01:33:35;;;;;;;25.00;11.33;;;3.00;97.30;;;;;;5029944;28;20401;-89
2022/01/15 01:38:35;;;;;;;38.20;13.70;;;2.90;97.30;;;;;;5029611;28;21127;-89
2022/01/15 01:41:01;;;;;;;32.80;12.07;;;2.90;97.30;;;;;;5012026;28;20415;-89
2022/01/15 01:48:37;;;;;;;41.57;12.70;;;2.80;97.30;;;;;;5029729;28;20497;-90
2022/01/15 01:51:06;;;;;;;33.17;11.77;;;2.80;97.30;;;;;;5011898;28;20411;-90
2022/01/15 01:53:32;;;;;;;34.70;11.47;;;2.80;97.30;;;;;;5011949;28;20801;-89
2022/01/15 01:55:58;;;;;;;34.47;13.60;;;2.80;97.30;;;;;;5011873;28;20418;-89
2022/01/15 01:58:23;;;;;;;32.60;11.57;;;2.80;97.30;;;;;;5029330;28;20435;-89
2022/01/15 02:00:49;;;;;;;38.20;13.50;;;2.70;97.30;;;;;;5011773;28;20634;-90
2022/01/15 02:03:14;;;;;;;39.10;13.03;;;2.70;97.30;;;;;;5011734;28;20189;-89
2022/01/15 02:05:41;;;;;;;26.23;10.27;;;2.70;97.30;;;;;;5011825;28;20211;-89
2022/01/15 02:08:07;;;;;;;35.57;10.97;;;2.60;97.30;;;;;;5011748;28;20590;-89
2022/01/15 02:10:34;;;;;;;41.60;13.90;;;2.60;97.30;;;;;;5011800;28;20429;-89
2022/01/15 02:13:01;;;;;;;26.07;9.93;;;2.60;97.30;;;;;;5011461;28;20238;-88
2022/01/15 02:15:27;;;;;;;33.90;11.33;;;2.60;97.30;;;;;;5029581;28;20415;-89
2022/01/15 02:17:54;;;;;;;32.43;10.97;;;2.50;97.30;;;;;;5029392;28;20431;-89
2022/01/15 02:20:35;;;;;;;33.13;11.00;;;2.50;97.30;;;;;;5011643;28;20626;-89
2022/01/15 02:25:59;;;;;;;32.07;12.53;;;2.50;97.30;;;;;;5029445;28;20509;-89
2022/01/15 02:28:28;;;;;;;35.70;12.00;;;2.40;97.30;;;;;;5011491;28;20446;-88
2022/01/15 02:30:56;;;;;;;38.00;14.07;;;2.40;97.30;;;;;;5011448;28;20457;-89
2022/01/15 02:33:22;;;;;;;37.80;13.70;;;2.40;97.30;;;;;;5035956;28;20423;-89
2022/01/15 02:35:47;;;;;;;36.20;12.80;;;2.40;97.30;;;;;;5011629;28;20407;-88
2022/01/15 02:38:13;;;;;;;33.87;12.93;;;2.40;97.30;;;;;;5011002;28;20467;-89
2022/01/15 02:40:39;;;;;;;25.20;10.17;;;2.30;97.30;;;;;;5011440;28;20176;-89
2022/01/15 02:43:15;;;;;;;35.47;11.93;;;2.30;97.30;;;;;;5011383;28;20172;-88
2022/01/15 02:45:46;;;;;;;32.83;12.53;;;2.20;97.30;;;;;;5011372;28;20454;-89
2022/01/15 02:48:17;;;;;;;30.73;11.17;;;2.20;97.30;;;;;;5011012;28;20439;-89
2022/01/15 02:50:44;;;;;;;35.50;12.17;;;2.20;97.30;;;;;;5011009;28;20403;-89
2022/01/15 02:53:11;;;;;;;36.77;12.47;;;2.20;97.30;;;;;;5028779;28;20414;-89
2022/01/15 02:55:41;;;;;;;34.87;12.33;;;2.20;97.30;;;;;;5011338;28;20415;-89
2022/01/15 02:58:07;;;;;;;35.30;12.07;;;2.20;97.30;;;;;;5028751;28;20521;-89
2022/01/15 03:00:33;;;;;;;33.20;11.77;;;2.20;97.30;;;;;;5011441;28;20506;-90
2022/01/15 03:02:59;;;;;;;42.83;13.77;;;2.20;97.30;;;;;;5028838;28;20177;-90
2022/01/15 03:05:24;;;;;;;42.53;13.27;;;2.20;97.30;;;;;;5028922;28;20458;-88
2022/01/15 03:07:50;;;;;;;34.90;11.27;;;2.20;97.30;;;;;;5011332;28;20675;-88
2022/01/15 03:10:16;;;;;;;38.57;11.73;;;2.20;97.30;;;;;;5013772;28;20335;-89
2022/01/15 03:12:41;;;;;;;39.97;13.97;;;2.20;97.30;;;;;;5014755;28;20186;-89
2022/01/15 03:15:08;;;;;;;34.47;13.17;;;2.20;97.30;;;;;;5032935;28;20651;-89
2022/01/15 03:17:34;;;;;;;29.53;11.67;;;2.20;97.30;;;;;;5014134;28;20857;-88
2022/01/15 03:20:01;;;;;;;35.33;13.77;;;2.20;97.30;;;;;;5014228;28;20481;-88
2022/01/15 03:22:26;;;;;;;42.53;13.23;;;2.10;97.30;;;;;;5031967;28;20423;-89
2022/01/15 03:24:52;;;;;;;37.60;14.00;;;2.10;97.30;;;;;;5014481;28;20476;-89
2022/01/15 03:27:18;;;;;;;32.20;11.57;;;2.10;97.30;;;;;;5014397;28;20702;-89
2022/01/15 03:29:44;;;;;;;41.23;12.87;;;2.10;97.30;;;;;;5014486;28;20550;-88
2022/01/15 03:32:09;;;;;;;30.67;10.63;;;2.00;97.30;;;;;;5014194;28;20420;-89
2022/01/15 03:34:35;;;;;;;33.23;12.87;;;2.00;97.30;;;;;;5014176;28;20443;-89
2022/01/15 03:37:01;;;;;;;32.03;12.50;;;2.00;97.30;;;;;;5014318;28;20374;-89
2022/01/15 03:39:27;;;;;;;42.67;12.00;;;2.00;97.30;;;;;;5014177;28;20231;-89
2022/01/15 03:41:52;;;;;;;36.57;13.57;;;2.00;97.30;;;;;;5014129;28;20180;-88
2022/01/15 03:44:18;;;;;;;30.33;10.57;;;2.00;97.30;;;;;;5013941;28;20427;-89
2022/01/15 03:46:43;;;;;;;42.10;13.87;;;2.00;97.30;;;;;;5014268;28;20214;-89
2022/01/15 03:49:09;;;;;;;44.63;12.77;;;1.90;97.30;;;;;;5014021;28;20647;-89
2022/01/15 03:51:34;;;;;;;31.77;11.43;;;1.90;97.30;;;;;;5013998;28;20176;-88
2022/01/15 03:54:00;;;;;;;39.40;12.80;;;1.90;97.30;;;;;;5013894;28;20307;-89
2022/01/15 03:56:25;;;;;;;33.87;13.20;;;1.90;97.30;;;;;;5013956;28;20191;-89
2022/01/15 03:58:51;;;;;;;31.97;12.70;;;1.90;97.30;;;;;;5013910;28;20211;-88
2022/01/15 04:01:16;;;;;;;36.10;12.10;;;1.80;97.30;;;;;;5031966;28;20661;-88
2022/01/15 04:03:42;;;;;;;36.63;12.50;;;1.80;97.30;;;;;;5013738;28;20184;-89
2022/01/15 04:06:07;;;;;;;36.00;12.10;;;1.80;97.30;;;;;;5013792;28;20208;-89
2022/01/15 04:08:33;;;;;;;33.90;13.93;;;1.80;97.30;;;;;;5013645;28;20245;-88
2022/01/15 04:10:58;;;;;;;35.70;11.67;;;1.80;97.30;;;;;;5013685;28;20230;-89
2022/01/15 04:13:24;;;;;;;48.63;11.97;;;1.80;97.30;;;;;;5013504;28;20195;-88
2022/01/15 04:15:52;;;;;;;35.27;12.20;;;1.80;97.30;;;;;;5013480;28;20203;-89
2022/01/15 04:18:22;;;;;;;35.63;11.93;;;1.80;97.30;;;;;;5013271;28;20678;-89
2022/01/15 04:20:48;;;;;;;38.43;10.90;;;1.70;97.30;;;;;;5030087;28;20933;-89
2022/01/15 04:23:14;;;;;;;34.70;13.63;;;1.70;97.30;;;;;;5013585;28;20434;-88
2022/01/15 04:25:39;;;;;;;31.83;12.07;;;1.70;97.30;;;;;;5013240;28;20738;-89
2022/01/15 04:28:09;;;;;;;38.27;12.70;;;1.60;97.30;;;;;;5012691;28;20738;-89
2022/01/15 04:30:35;;;;;;;32.43;11.60;;;1.60;97.30;;;;;;5013313;28;20177;-89
2022/01/15 04:33:01;;;;;;;34.97;12.90;;;1.60;97.30;;;;;;5013303;28;20469;-88
2022/01/15 04:35:26;;;;;;;31.37;10.53;;;1.60;97.30;;;;;;5013171;28;20518;-89
2022/01/15 04:37:59;;;;;;;32.93;11.87;;;1.60;97.30;;;;;;5013627;28;20240;-88
2022/01/15 04:40:25;;;;;;;36.50;11.77;;;1.50;97.30;;;;;;5015828;28;20181;-89
2022/01/15 04:42:50;;;;;;;43.77;13.93;;;1.50;97.30;;;;;;5015884;28;20423;-88
2022/01/15 04:45:16;;;;;;;83.83;15.47;;;1.50;97.30;;;;;;5015616;28;20215;-89
2022/01/15 04:47:41;;;;;;;44.03;12.57;;;1.50;97.30;;;;;;5015662;28;20195;-89
2022/01/15 04:50:11;;;;;;;75.13;13.27;;;1.50;97.30;;;;;;5033043;28;20172;-89
2022/01/15 04:52:38;;;;;;;37.80;12.60;;;1.60;97.30;;;;;;5033143;28;20601;-89
2022/01/15 04:55:05;;;;;;;42.23;13.67;;;1.60;97.30;;;;;;5015157;28;20942;-89
2022/01/15 04:57:30;;;;;;;75.43;14.97;;;1.60;97.30;;;;;;5015311;28;20434;-88
2022/01/15 04:59:56;;;;;;;46.17;12.40;;;1.60;97.30;;;;;;5015498;28;20419;-88
2022/01/15 05:02:21;;;;;;;47.83;13.90;;;1.60;97.30;;;;;;5015544;28;20283;-89
2022/01/15 05:04:47;;;;;;;73.23;16.20;;;1.70;97.30;;;;;;5015321;28;20188;-88
2022/01/15 05:07:12;;;;;;;54.27;13.80;;;1.70;97.30;;;;;;5015187;28;20180;-88
2022/01/15 05:09:38;;;;;;;69.20;13.17;;;1.70;97.30;;;;;;5015178;28;20533;-88
2022/01/15 05:12:29;;;;;;;51.53;12.80;;;1.70;97.30;;;;;;5015174;28;20172;-89
2022/01/15 05:14:50;;;;;;;53.57;12.80;;;1.70;97.30;;;;;;5032503;28;20180;-89
2022/01/15 05:17:15;;;;;;;74.77;13.77;;;1.70;97.30;;;;;;5015156;28;20481;-89
2022/01/15 05:19:41;;;;;;;65.37;12.17;;;1.70;97.30;;;;;;5014925;28;20243;-89
2022/01/15 05:22:06;;;;;;;69.90;12.53;;;1.70;97.30;;;;;;5015209;28;20662;-88
2022/01/15 05:24:33;;;;;;;56.33;12.33;;;1.70;97.30;;;;;;5015169;28;20185;-89
2022/01/15 05:26:59;;;;;;;33.33;10.60;;;1.70;97.30;;;;;;5014797;28;20196;-90
2022/01/15 05:29:24;;;;;;;63.13;12.80;;;1.70;97.30;;;;;;5021714;28;20431;-88
2022/01/15 05:31:50;;;;;;;52.47;10.57;;;1.70;97.30;;;;;;5014733;28;20499;-89
2022/01/15 05:34:15;;;;;;;38.83;10.80;;;1.70;97.30;;;;;;5025817;28;20182;-88
2022/01/15 05:36:41;;;;;;;45.60;14.33;;;1.70;97.30;;;;;;4995372;28;20205;-89
2022/01/15 05:39:07;;;;;;;45.13;10.77;;;1.70;97.30;;;;;;4994839;28;20710;-88
2022/01/15 05:41:33;;;;;;;51.83;11.60;;;1.70;97.30;;;;;;5010355;28;20610;-88
2022/01/15 05:44:01;;;;;;;31.60;10.87;;;1.70;97.30;;;;;;5017656;28;20977;-89
2022/01/15 05:46:31;;;;;;;27.60;9.37;;;1.70;97.30;;;;;;5012070;28;20455;-88
2022/01/15 05:48:57;;;;;;;37.03;9.73;;;1.60;97.30;;;;;;4994951;28;20436;-88
2022/01/15 05:51:22;;;;;;;41.87;11.03;;;1.60;97.30;;;;;;4994740;28;20419;-88
2022/01/15 05:53:48;;;;;;;37.63;10.83;;;1.60;97.30;;;;;;4994869;28;20507;-89
2022/01/15 05:56:13;;;;;;;39.10;10.57;;;1.50;97.30;;;;;;4995099;28;20181;-88
2022/01/15 05:58:39;;;;;;;38.13;10.80;;;1.40;97.30;;;;;;4994918;28;20197;-89
2022/01/15 06:01:11;;;;;;;48.77;11.07;;;1.40;97.30;;;;;;5000877;28;20606;-89
2022/01/15 06:03:36;;;;;;;41.03;8.97;;;1.40;97.30;;;;;;5014322;28;20700;-89
2022/01/15 06:06:02;;;;;;;36.13;9.90;;;1.40;97.30;;;;;;5014399;28;20459;-89
2022/01/15 06:08:28;;;;;;;42.40;9.90;;;1.30;97.30;;;;;;5014378;28;20196;-89
2022/01/15 06:10:53;;;;;;;28.13;9.40;;;1.30;97.30;;;;;;5014294;28;20420;-89
2022/01/15 06:13:19;;;;;;;36.33;10.10;;;1.30;97.30;;;;;;5014272;28;20179;-89
2022/01/15 06:15:44;;;;;;;53.07;11.13;;;1.30;97.30;;;;;;5014416;28;20172;-88
2022/01/15 06:18:10;;;;;;;29.60;9.83;;;1.30;97.30;;;;;;5014471;28;20593;-89
2022/01/15 06:20:35;;;;;;;39.13;10.87;;;1.40;97.30;;;;;;5014297;28;20188;-88
2022/01/15 06:23:01;;;;;;;64.33;11.07;;;1.40;97.30;;;;;;5014542;28;20181;-88
2022/01/15 06:25:27;;;;;;;47.63;10.87;;;1.40;97.30;;;;;;5016992;28;20208;-89
2022/01/15 06:27:52;;;;;;;34.27;9.57;;;1.40;97.30;;;;;;5014307;28;20717;-88
2022/01/15 06:30:18;;;;;;;28.17;9.90;;;1.50;97.30;;;;;;5013802;28;20264;-88
2022/01/15 06:32:43;;;;;;;30.00;9.23;;;1.50;97.30;;;;;;5005903;28;20172;-89
2022/01/15 06:35:13;;;;;;;35.53;9.00;;;1.50;97.30;;;;;;5004281;28;20181;-89
2022/01/15 06:37:39;;;;;;;60.90;11.33;;;1.50;97.30;;;;;;5002301;28;20228;-88
2022/01/15 06:40:06;;;;;;;43.13;10.37;;;1.50;97.30;;;;;;5020045;28;20419;-89
2022/01/15 06:42:31;;;;;;;44.53;11.40;;;1.50;97.30;;;;;;4999885;28;20432;-89
2022/01/15 06:44:57;;;;;;;38.60;10.97;;;1.50;97.30;;;;;;4996442;28;21176;-88
2022/01/15 06:47:23;;;;;;;35.30;12.13;;;1.60;97.30;;;;;;4998261;28;20193;-88
2022/01/15 06:49:48;;;;;;;40.50;11.03;;;1.60;97.30;;;;;;5006028;28;20173;-89
2022/01/15 06:52:14;;;;;;;30.63;10.07;;;1.70;97.30;;;;;;5017917;28;20275;-89
2022/01/15 06:54:39;;;;;;;31.43;11.00;;;1.70;97.30;;;;;;5018010;28;20544;-89
2022/01/15 06:57:05;;;;;;;35.70;12.70;;;1.70;97.30;;;;;;5035406;28;20187;-89
2022/01/15 06:59:30;;;;;;;43.67;12.33;;;1.70;97.30;;;;;;5029957;28;20191;-89
2022/01/15 07:01:56;;;;;;;33.03;11.93;;;1.70;97.30;;;;;;5017802;28;20960;-88
2022/01/15 07:04:21;;;;;;;31.50;12.10;;;1.70;97.30;;;;;;5017473;28;20184;-88
2022/01/15 07:06:47;;;;;;;36.70;12.90;;;1.70;97.30;;;;;;5009067;28;20227;-89
2022/01/15 07:09:13;;;;;;;30.60;11.50;;;1.70;97.30;;;;;;4997509;28;20252;-89
2022/01/15 07:11:38;;;;;;;35.90;12.77;;;1.70;97.30;;;;;;5013680;28;20173;-88
2022/01/15 07:14:04;;;;;;;35.07;12.30;;;1.70;97.30;;;;;;4997638;28;20173;-89
2022/01/15 07:16:29;;;;;;;40.60;12.47;;;1.70;97.30;;;;;;4997625;28;20243;-89
2022/01/15 07:18:54;;;;;;;29.30;12.00;;;1.70;97.30;;;;;;5013738;28;20742;-89
2022/01/15 07:21:20;;;;;;;27.80;12.30;;;1.70;97.30;;;;;;5014976;28;20228;-89
2022/01/15 07:23:45;;;;;;;38.37;13.27;;;1.80;97.30;;;;;;5015115;28;20197;-89
2022/01/15 07:26:11;;;;;;;39.10;13.53;;;1.80;97.30;;;;;;5013618;28;20753;-89
2022/01/15 07:28:37;;;;;;;31.37;12.60;;;1.90;97.30;;;;;;4997437;28;20204;-89
2022/01/15 07:31:02;;;;;;;35.77;12.60;;;1.90;97.30;;;;;;5022468;28;20648;-88
2022/01/15 07:33:28;;;;;;;38.20;12.73;;;2.00;97.30;;;;;;4997303;28;20182;-88
2022/01/15 07:35:55;;;;;;;32.50;12.47;;;2.00;97.30;;;;;;5010112;28;20191;-89
2022/01/15 07:38:20;;;;;;;35.63;12.60;;;2.10;97.30;;;;;;5017743;28;20228;-88
2022/01/15 07:40:47;;;;;;;40.83;12.90;;;2.10;97.30;;;;;;5017691;28;21079;-88
2022/01/15 07:43:13;;;;;;;41.87;13.97;;;2.20;97.30;;;;;;5034998;28;20169;-89
2022/01/15 07:45:38;;;;;;;40.17;14.30;;;2.20;97.30;;;;;;5017715;28;20462;-89
2022/01/15 07:48:04;;;;;;;34.83;12.90;;;2.20;97.30;;;;;;4998191;28;20205;-89
2022/01/15 07:50:30;;;;;;;38.60;12.97;;;2.30;97.30;;;;;;4997829;28;20723;-89
2022/01/15 07:52:57;;;;;;;47.10;15.50;;;2.30;97.30;;;;;;5008651;28;20176;-89
2022/01/15 07:55:23;;;;;;;37.33;12.07;;;2.30;97.30;;;;;;5033892;28;20180;-90
2022/01/15 07:57:49;;;;;;;37.00;13.67;;;2.30;97.30;;;;;;5018113;28;21061;-89
2022/01/15 08:00:16;;;;;;;37.50;13.60;;;2.40;97.30;;;;;;5030148;28;20455;-90
2022/01/15 08:02:42;;;;;;;40.17;13.60;;;2.40;97.30;;;;;;5016383;28;20423;-89
2022/01/15 08:05:09;;;;;;;42.87;15.30;;;2.40;97.30;;;;;;5006022;28;20427;-89
2022/01/15 08:07:35;;;;;;;38.53;13.00;;;2.40;97.30;;;;;;5031688;28;20525;-89
2022/01/15 08:10:03;;;;;;;42.17;13.67;;;2.40;97.30;;;;;;5004105;28;20452;-89
2022/01/15 08:12:29;;;;;;;44.50;15.13;;;2.40;97.30;;;;;;5003990;28;20540;-89
2022/01/15 08:14:55;;;;;;;38.47;13.60;;;2.50;97.30;;;;;;5017536;28;20424;-89
2022/01/15 08:17:20;;;;;;;36.83;12.70;;;2.60;97.30;;;;;;5016977;28;20192;-90
2022/01/15 08:19:46;;;;;;;39.27;13.80;;;2.60;97.30;;;;;;5016940;28;20423;-89
2022/01/15 08:22:11;;;;;;;38.43;12.27;;;2.60;97.30;;;;;;5016830;28;20178;-89
2022/01/15 08:24:37;;;;;;;42.30;11.97;;;2.70;97.30;;;;;;5035093;28;20782;-89
2022/01/15 08:27:03;;;;;;;37.73;13.27;;;2.70;97.30;;;;;;5017091;28;20200;-89
2022/01/15 08:29:28;;;;;;;42.47;13.70;;;2.70;97.30;;;;;;5017756;28;20833;-90
2022/01/15 08:31:56;;;;;;;40.27;13.97;;;2.70;97.30;;;;;;5017311;28;20173;-90
2022/01/15 08:34:21;;;;;;;31.33;11.53;;;2.80;97.30;;;;;;5026224;28;20177;-90
2022/01/15 08:36:47;;;;;;;38.23;13.83;;;2.80;97.30;;;;;;5030044;28;20426;-90
2022/01/15 08:39:12;;;;;;;36.13;12.80;;;2.80;97.30;;;;;;5011749;28;20286;-89
2022/01/15 08:41:39;;;;;;;37.73;13.40;;;2.90;97.30;;;;;;5009485;28;20268;-90
2022/01/15 08:44:06;;;;;;;31.40;12.80;;;2.90;97.30;;;;;;5011056;28;20184;-90
2022/01/15 08:46:32;;;;;;;39.70;13.70;;;3.00;97.30;;;;;;5011445;28;20520;-89
2022/01/15 08:48:57;;;;;;;39.30;14.43;;;3.00;97.30;;;;;;5010926;28;20432;-90
2022/01/15 08:51:25;;;;;;;36.90;13.53;;;3.00;97.30;;;;;;5010864;28;20193;-89
2022/01/15 08:53:51;;;;;;;28.17;10.90;;;3.00;97.30;;;;;;5002348;28;20178;-89
2022/01/15 08:56:17;;;;;;;35.27;11.27;;;3.10;97.30;;;;;;5002484;28;20829;-89
2022/01/15 08:58:43;;;;;;;32.70;12.33;;;3.10;97.30;;;;;;4999539;28;20284;-89
2022/01/15 09:01:13;;;;;;;37.73;12.17;;;3.10;97.30;;;;;;4995608;28;20471;-89
2022/01/15 09:03:42;;;;;;;37.37;11.60;;;3.20;97.30;;;;;;4995314;28;20273;-90
2022/01/15 09:06:08;;;;;;;39.27;12.77;;;3.20;97.30;;;;;;4996727;28;20460;-90
2022/01/15 09:08:34;;;;;;;36.07;11.17;;;3.20;97.30;;;;;;4999818;28;20838;-89
2022/01/15 09:10:59;;;;;;;32.13;13.30;;;3.30;97.30;;;;;;4992719;28;20464;-90
2022/01/15 09:13:25;;;;;;;25.90;11.33;;;3.30;97.30;;;;;;4991598;28;20543;-89
2022/01/15 09:15:51;;;;;;;33.77;12.10;;;3.40;97.30;;;;;;4999038;28;20169;-89
2022/01/15 09:18:17;;;;;;;38.10;13.17;;;3.40;97.30;;;;;;5010947;28;20247;-90
2022/01/15 09:20:43;;;;;;;37.87;13.50;;;3.40;97.30;;;;;;5011206;28;20194;-89
2022/01/15 09:23:10;;;;;;;34.80;12.60;;;3.50;97.30;;;;;;5010991;28;20567;-89
2022/01/15 09:25:35;;;;;;;28.87;10.63;;;3.50;97.30;;;;;;5012615;28;20833;-89
2022/01/15 09:30:47;;;;;;;41.77;14.40;;;3.60;97.30;;;;;;5012118;28;20192;-89
2022/01/15 09:33:15;;;;;;;36.43;13.80;;;3.60;97.30;;;;;;5010594;28;20923;-90
2022/01/15 09:35:40;;;;;;;37.27;13.80;;;3.60;97.30;;;;;;5007602;28;20276;-90
2022/01/15 09:38:07;;;;;;;35.33;12.13;;;3.70;97.30;;;;;;5008959;28;20992;-89
2022/01/15 09:40:33;;;;;;;39.20;12.60;;;3.70;97.30;;;;;;5009982;28;20972;-90
2022/01/15 09:42:58;;;;;;;50.90;13.20;;;3.70;97.30;;;;;;5009695;28;20495;-90
2022/01/15 09:45:25;;;;;;;40.97;12.47;;;3.80;97.30;;;;;;5010983;28;20702;-90
2022/01/15 09:48:09;;;;;;;38.10;13.57;;;3.80;97.30;;;;;;5009733;28;20327;-90
2022/01/15 09:50:38;;;;;;;39.60;14.07;;;3.80;97.30;;;;;;5010318;28;20416;-89
2022/01/15 09:53:04;;;;;;;38.03;13.53;;;3.80;97.30;;;;;;5004863;28;20978;-90
2022/01/15 09:55:30;;;;;;;43.90;15.37;;;3.90;97.30;;;;;;5009278;28;20567;-90
2022/01/15 09:57:56;;;;;;;46.03;17.70;;;3.90;97.30;;;;;;5010875;28;20533;-89
2022/01/15 10:00:24;;;;;;;34.10;11.93;;;3.90;97.30;;;;;;5006390;28;20540;-90
2022/01/15 10:02:51;;;;;;;36.90;13.90;;;3.90;97.30;;;;;;4999779;28;20490;-89
2022/01/15 10:05:28;;;;;;;35.13;14.03;;;3.90;97.30;;;;;;4990426;28;20456;-89
2022/01/15 10:08:21;;;;;;;40.67;14.17;;;3.90;97.30;;;;;;4990181;28;20467;-89
2022/01/15 10:11:11;;;;;;;;;;;;;;;;;;;;;
2022/01/15 10:13:50;;;;;;;37.97;11.90;;;4.00;97.30;;;;;;5007332;28;20425;-89
2022/01/15 10:16:18;;;;;;;33.47;13.37;;;4.00;97.30;;;;;;5007321;28;20421;-90
2022/01/15 10:18:48;;;;;;;35.50;13.50;;;4.00;97.30;;;;;;5005950;28;20456;-90
2022/01/15 10:21:29;;;;;;;24.90;11.40;;;4.00;97.30;;;;;;4993215;28;20419;-89
2022/01/15 10:24:00;;;;;;;32.80;11.60;;;4.00;97.30;;;;;;5007717;28;20459;-90
2022/01/15 10:26:39;;;;;;;38.13;14.43;;;4.10;97.30;;;;;;5014610;28;20559;-90
2022/01/15 10:29:31;;;;;;;40.73;13.80;;;4.10;97.30;;;;;;5011595;28;20950;-90
2022/01/15 10:32:07;;;;;;;32.97;12.17;;;4.20;97.30;;;;;;5013719;28;20656;-90
2022/01/15 10:34:48;;;;;;;31.17;12.30;;;4.20;97.30;;;;;;5013291;28;20427;-90
2022/01/15 10:37:47;;;;;;;30.30;10.63;;;4.30;97.30;;;;;;5047748;28;20423;-89
2022/01/15 10:40:48;;;;;;;29.97;10.97;;;4.30;97.30;;;;;;5016748;28;20435;-89
2022/01/15 10:43:39;;;;;;;33.97;11.70;;;4.30;97.30;;;;;;5007201;28;20458;-90
2022/01/15 10:46:08;;;;;;;30.20;11.50;;;4.40;97.30;;;;;;5019005;28;20463;-89
2022/01/15 10:48:47;;;;;;;50.23;11.77;;;4.30;97.30;;;;;;5016787;28;20426;-89
2022/01/15 10:51:38;;;;;;;34.20;11.27;;;4.40;97.30;;;;;;5018939;28;20421;-89
2022/01/15 10:54:39;;;;;;;34.40;11.43;;;4.40;97.30;;;;;;5024903;28;20415;-89
2022/01/15 10:57:17;;;;;;;35.20;10.33;;;4.40;97.30;;;;;;5033861;28;20422;-90
2022/01/15 11:00:08;;;;;;;23.67;10.53;;;4.40;97.30;;;;;;5032301;28;20435;-89
2022/01/15 11:02:38;;;;;;;31.00;11.00;;;4.40;97.30;;;;;;5016658;28;20446;-89
2022/01/15 11:05:27;;;;;;;51.23;11.87;;;4.40;97.30;;;;;;5016443;28;20477;-89
2022/01/15 11:08:28;;;;;;;28.47;10.77;;;4.40;97.30;;;;;;5016954;28;20849;-89
2022/01/15 11:11:32;;;;;;;28.07;9.53;;;4.50;97.30;;;;;;5026091;28;20412;-90
2022/01/15 11:14:13;;;;;;;;;;;;;;;;;;;;;
2022/01/15 11:16:39;;;;;;;37.87;12.40;;;4.60;97.30;;;;;;4972637;28;20414;-89
2022/01/15 11:19:10;;;;;;;44.83;12.47;;;4.50;97.30;;;;;;4956297;28;20548;-89
2022/01/15 11:21:38;;;;;;;40.13;11.50;;;4.50;97.30;;;;;;4956365;28;20594;-89
2022/01/15 11:24:17;;;;;;;28.57;9.90;;;4.50;97.30;;;;;;4970975;28;20424;-90
2022/01/15 11:26:57;;;;;;;34.30;10.63;;;4.60;97.30;;;;;;4996644;28;20864;-89
2022/01/15 11:29:29;;;;;;;32.70;10.57;;;4.60;97.30;;;;;;4995917;28;20489;-90
2022/01/15 11:31:59;;;;;;;27.57;10.20;;;4.50;97.30;;;;;;4996553;28;20415;-90
2022/01/15 11:34:28;;;;;;;41.97;11.33;;;4.50;97.30;;;;;;4998928;28;20450;-89
2022/01/15 11:37:16;;;;;;;30.90;9.87;;;4.50;97.30;;;;;;5001741;28;20935;-90
2022/01/15 11:39:52;;;;;;;25.37;9.83;;;4.60;97.30;;;;;;4995824;28;20470;-89
2022/01/15 11:42:49;;;;;;;28.60;10.20;;;4.70;97.30;;;;;;4996502;28;20455;-89
2022/01/15 11:45:41;;;;;;;24.83;8.73;;;4.60;97.30;;;;;;5001088;28;20420;-89
2022/01/15 11:48:49;;;;;;;35.33;9.43;;;4.70;97.30;;;;;;4996051;28;20951;-89
2022/01/15 11:51:18;;;;;;;26.83;9.83;;;4.70;97.30;;;;;;4995999;28;20471;-89
2022/01/15 11:54:17;;;;;;;29.40;9.03;;;4.80;97.30;;;;;;5001881;28;20518;-89
2022/01/15 11:56:59;;;;;;;23.90;8.97;;;4.90;97.30;;;;;;4995897;28;20930;-89
2022/01/15 11:59:49;;;;;;;29.70;9.37;;;4.90;97.30;;;;;;4996214;28;20428;-90
2022/01/15 12:02:40;;;;;;;33.90;10.50;;;4.90;97.30;;;;;;5021006;28;21017;-90
2022/01/15 12:05:28;;;;;;;29.90;9.90;;;4.90;97.30;;;;;;5012543;28;20423;-89
2022/01/15 12:08:08;;;;;;;33.03;9.50;;;5.00;97.30;;;;;;5014812;28;20443;-90
2022/01/15 12:10:59;;;;;;;29.60;9.37;;;5.10;97.30;;;;;;5014671;28;20434;-90
2022/01/15 12:13:37;;;;;;;22.47;8.47;;;5.10;97.30;;;;;;5014473;28;20690;-89
2022/01/15 12:16:36;;;;;;;;;;;;;;;;;;;;;
2022/01/15 12:19:09;;;;;;;25.07;8.80;;;5.20;97.30;;;;;;5030894;28;20809;-90
2022/01/15 12:21:53;;;;;;;30.07;8.60;;;5.20;97.30;;;;;;5015619;28;20429;-90
2022/01/15 12:24:41;;;;;;;29.60;8.80;;;5.20;97.30;;;;;;5016772;28;20423;-89
2022/01/15 12:27:10;;;;;;;27.73;8.70;;;5.20;97.30;;;;;;5017218;28;20552;-90
2022/01/15 12:29:37;;;;;;;25.37;9.60;;;5.20;97.30;;;;;;5017266;28;20455;-89
2022/01/15 12:32:02;;;;;;;39.03;13.10;;;5.20;97.30;;;;;;5017526;28;20470;-89
2022/01/15 12:34:28;;;;;;;24.40;9.60;;;5.10;97.30;;;;;;5017184;28;20419;-89
2022/01/15 12:36:56;;;;;;;20.87;8.67;;;5.10;97.30;;;;;;5035224;28;20928;-89
2022/01/15 12:39:39;;;;;;;23.00;8.50;;;5.10;97.30;;;;;;5034943;28;20228;-88
2022/01/15 12:42:06;;;;;;;26.93;9.30;;;5.10;97.30;;;;;;5033932;28;20526;-89
2022/01/15 12:44:46;;;;;;;24.50;9.40;;;5.20;97.30;;;;;;5017062;28;20427;-89
2022/01/15 12:47:13;;;;;;;24.80;9.23;;;5.20;97.30;;;;;;4998380;28;20502;-89
2022/01/15 12:49:51;;;;;;;20.03;7.40;;;5.20;97.30;;;;;;5005172;28;20486;-88
2022/01/15 12:52:26;;;;;;;22.30;7.23;;;5.20;97.30;;;;;;5013166;28;20429;-89
2022/01/15 12:54:54;;;;;;;17.57;7.13;;;5.20;97.30;;;;;;5016921;28;20443;-89
2022/01/15 12:57:36;;;;;;;25.90;8.23;;;5.20;97.30;;;;;;5034564;28;20969;-89
2022/01/15 13:00:09;;;;;;;22.27;6.20;;;5.20;97.30;;;;;;5017059;28;20423;-89
2022/01/15 13:02:34;;;;;;;24.70;6.00;;;5.20;97.30;;;;;;5034828;28;20420;-89
2022/01/15 13:05:00;;;;;;;23.63;7.80;;;5.20;97.30;;;;;;5016677;28;20426;-89
2022/01/15 13:07:25;;;;;;;19.73;7.00;;;5.20;97.30;;;;;;5016500;28;20212;-90
2022/01/15 13:09:51;;;;;;;11.10;3.73;;;5.20;97.30;;;;;;5016582;28;20196;-89
2022/01/15 13:12:16;;;;;;;25.77;4.80;;;5.10;97.30;;;;;;5016477;28;20267;-90
2022/01/15 13:14:43;;;;;;;16.83;4.03;;;5.10;97.30;;;;;;5016077;28;20177;-89
2022/01/15 13:17:23;;;;;;;17.10;5.63;;;5.10;97.30;;;;;;5016306;28;20184;-88
2022/01/15 13:19:49;;;;;;;16.13;5.20;;;5.10;97.30;;;;;;5015835;28;20462;-90
2022/01/15 13:22:22;;;;;;;23.03;8.70;;;5.10;97.30;;;;;;5016711;28;20430;-89
2022/01/15 13:24:56;;;;;;;17.27;5.97;;;5.10;97.30;;;;;;5013274;28;20207;-89